createdAt,value
2022-09-12T00:01:07.989Z,63.44
2022-09-12T00:03:35.672Z,63.82
2022-09-12T00:06:13.042Z,63.97
2022-09-12T00:08:40.130Z,63.98
2022-09-12T00:11:10.411Z,63.63
2022-09-12T00:13:41.819Z,63.70
2022-09-12T00:16:20.813Z,64.27
2022-09-12T00:18:48.214Z,63.66
2022-09-12T00:21:16.885Z,64.15
2022-09-12T00:23:44.153Z,64.15
2022-09-12T00:26:11.367Z,63.94
2022-09-12T00:28:40.621Z,64.08
2022-09-12T00:31:11.940Z,64.70
2022-09-12T00:33:39.540Z,64.44
2022-09-12T00:36:14.975Z,64.57
2022-09-12T00:38:43.952Z,64.20
2022-09-12T00:41:19.271Z,64.88
2022-09-12T00:43:50.651Z,64.80
2022-09-12T00:46:29.785Z,64.91
2022-09-12T00:49:48.531Z,65.15
2022-09-12T00:52:26.794Z,65.24
2022-09-12T00:55:06.284Z,65.36
2022-09-12T00:57:38.417Z,65.29
2022-09-12T01:00:20.685Z,65.78
2022-09-12T01:02:57.272Z,66.15
2022-09-12T01:05:26.731Z,66.25
2022-09-12T01:07:56.567Z,66.34
2022-09-12T01:10:24.246Z,66.59
2022-09-12T01:12:51.817Z,67.14
2022-09-12T01:15:18.812Z,67.13
2022-09-12T01:18:17.927Z,66.66
2022-09-12T01:21:21.979Z,66.65
2022-09-12T01:27:52.239Z,66.73
2022-09-12T01:30:23.517Z,66.43
2022-09-12T01:33:33.652Z,66.96
2022-09-12T01:36:34.706Z,67.08
2022-09-12T01:39:18.386Z,67.22
2022-09-12T01:42:26.336Z,66.96
2022-09-12T01:51:39.957Z,67.25
2022-09-12T01:59:49.044Z,67.44
2022-09-12T02:02:40.463Z,67.51
2022-09-12T02:05:21.751Z,67.07
2022-09-12T02:07:54.196Z,67.64
2022-09-12T02:10:30.379Z,67.54
2022-09-12T02:13:07.728Z,67.37
2022-09-12T02:15:43.939Z,67.95
2022-09-12T02:18:18.038Z,67.60
2022-09-12T02:20:49.294Z,68.29
2022-09-12T02:23:26.905Z,67.97
2022-09-12T02:26:00.134Z,68.08
2022-09-12T02:28:33.612Z,67.91
2022-09-12T02:31:32.814Z,68.14
2022-09-12T02:34:11.540Z,67.82
2022-09-12T02:37:25.962Z,68.03
2022-09-12T02:39:56.072Z,67.87
2022-09-12T02:42:24.335Z,69.10
2022-09-12T02:44:54.778Z,68.74
2022-09-12T02:47:44.236Z,68.96
2022-09-12T02:50:12.094Z,68.78
2022-09-12T02:52:40.683Z,68.48
2022-09-12T02:55:11.656Z,68.77
2022-09-12T02:57:38.988Z,68.50
2022-09-12T03:00:08.229Z,68.61
2022-09-12T03:02:59.991Z,68.86
2022-09-12T03:05:45.605Z,69.17
2022-09-12T03:08:42.025Z,69.14
2022-09-12T03:11:31.495Z,69.72
2022-09-12T03:14:47.295Z,69.40
2022-09-12T03:17:48.886Z,69.49
2022-09-12T03:20:51.150Z,68.85
2022-09-12T03:23:38.054Z,69.54
2022-09-12T03:26:21.247Z,69.37
2022-09-12T03:28:49.794Z,69.50
2022-09-12T03:31:19.238Z,69.56
2022-09-12T03:33:46.569Z,69.88
2022-09-12T03:36:20.405Z,69.47
2022-09-12T03:38:47.853Z,69.30
2022-09-12T03:41:15.095Z,69.09
2022-09-12T03:43:42.249Z,69.84
2022-09-12T03:46:09.676Z,69.27
2022-09-12T03:48:37.098Z,69.42
2022-09-12T03:51:07.809Z,69.98
2022-09-12T03:53:35.257Z,69.29
2022-09-12T03:56:12.552Z,69.87
2022-09-12T03:58:39.799Z,69.71
2022-09-12T04:01:12.873Z,69.84
2022-09-12T04:03:45.514Z,69.92
2022-09-12T04:06:15.620Z,69.89
2022-09-12T04:08:44.330Z,69.74
2022-09-12T04:11:14.674Z,69.66
2022-09-12T04:13:44.735Z,69.93
2022-09-12T04:16:14.507Z,70.47
2022-09-12T04:18:42.096Z,70.00
2022-09-12T04:21:14.076Z,70.20
2022-09-12T04:23:41.099Z,69.72
2022-09-12T04:26:08.610Z,69.58
2022-09-12T04:28:37.737Z,70.35
2022-09-12T04:31:09.009Z,69.59
2022-09-12T04:33:36.683Z,69.97
2022-09-12T04:36:07.029Z,69.95
2022-09-12T04:38:36.161Z,69.81
2022-09-12T04:41:22.112Z,69.60
2022-09-12T04:43:58.902Z,69.54
2022-09-12T04:46:26.870Z,70.20
2022-09-12T04:48:56.983Z,69.55
2022-09-12T04:51:28.208Z,69.60
2022-09-12T04:54:00.299Z,70.18
2022-09-12T04:56:28.542Z,70.22
2022-09-12T04:58:59.042Z,70.70
2022-09-12T05:01:28.661Z,70.76
2022-09-12T05:03:56.836Z,70.47
2022-09-12T05:06:28.130Z,70.90
2022-09-12T05:08:56.558Z,70.83
2022-09-12T05:11:41.193Z,71.35
2022-09-12T05:14:14.230Z,71.71
2022-09-12T05:16:41.387Z,71.59
2022-09-12T05:19:11.239Z,71.31
2022-09-12T05:21:38.880Z,71.49
2022-09-12T05:24:06.727Z,71.96
2022-09-12T05:26:33.753Z,71.83
2022-09-12T05:29:01.368Z,72.29
2022-09-12T05:31:28.956Z,71.91
2022-09-12T05:33:57.230Z,72.38
2022-09-12T05:36:30.460Z,71.87
2022-09-12T05:39:00.193Z,72.04
2022-09-12T05:41:34.022Z,72.17
2022-09-12T05:44:07.058Z,72.49
2022-09-12T05:46:40.814Z,72.48
2022-09-12T05:49:11.595Z,72.56
2022-09-12T05:51:45.198Z,72.48
2022-09-12T05:54:15.412Z,72.55
2022-09-12T05:56:44.205Z,72.80
2022-09-12T05:59:22.279Z,72.08
2022-09-12T06:01:49.807Z,72.23
2022-09-12T06:04:17.835Z,72.38
2022-09-12T06:06:46.366Z,72.92
2022-09-12T06:09:16.285Z,72.63
2022-09-12T06:11:45.408Z,72.95
2022-09-12T06:14:16.008Z,73.57
2022-09-12T06:16:43.261Z,73.59
2022-09-12T06:19:20.406Z,73.33
2022-09-12T06:21:49.759Z,73.29
2022-09-12T06:24:18.817Z,74.00
2022-09-12T06:26:50.414Z,74.04
2022-09-12T06:29:19.477Z,73.76
2022-09-12T06:31:46.823Z,73.61
2022-09-12T06:34:16.415Z,74.13
2022-09-12T06:36:46.879Z,73.58
2022-09-12T06:39:22.688Z,73.67
2022-09-12T06:41:52.122Z,73.21
2022-09-12T06:44:30.637Z,73.00
2022-09-12T06:46:58.763Z,73.42
2022-09-12T06:49:25.757Z,72.91
2022-09-12T06:51:53.020Z,73.07
2022-09-12T06:54:20.521Z,72.36
2022-09-12T06:56:47.833Z,72.68
2022-09-12T06:59:15.075Z,72.53
2022-09-12T07:01:42.344Z,72.38
2022-09-12T07:04:10.638Z,71.50
2022-09-12T07:06:41.481Z,71.80
2022-09-12T07:09:12.961Z,71.71
2022-09-12T07:11:42.382Z,71.63
2022-09-12T07:14:14.048Z,71.70
2022-09-12T07:16:41.913Z,71.08
2022-09-12T07:19:10.166Z,70.63
2022-09-12T07:21:40.303Z,69.93
2022-09-12T07:24:10.500Z,70.50
2022-09-12T07:26:40.534Z,70.48
2022-09-12T07:29:35.758Z,69.65
2022-09-12T07:32:05.605Z,69.43
2022-09-12T07:34:32.846Z,69.24
2022-09-12T07:36:59.805Z,69.67
2022-09-12T07:39:26.742Z,69.17
2022-09-12T07:41:53.776Z,69.29
2022-09-12T07:44:22.060Z,68.88
2022-09-12T07:46:50.518Z,68.99
2022-09-12T07:49:17.421Z,68.92
2022-09-12T07:51:44.413Z,68.50
2022-09-12T07:54:11.969Z,68.34
2022-09-12T07:56:39.626Z,68.86
2022-09-12T07:59:08.102Z,68.52
2022-09-12T08:01:35.375Z,67.68
2022-09-12T08:04:03.495Z,67.84
2022-09-12T08:06:32.198Z,68.08
2022-09-12T08:09:00.155Z,67.79
2022-09-12T08:11:29.266Z,67.38
2022-09-12T08:13:58.059Z,67.92
2022-09-12T08:16:31.184Z,67.24
2022-09-12T08:19:00.677Z,67.09
2022-09-12T08:21:33.077Z,67.40
2022-09-12T08:24:05.979Z,67.72
2022-09-12T08:26:34.142Z,66.83
2022-09-12T08:29:01.568Z,66.77
2022-09-12T08:31:29.448Z,67.16
2022-09-12T08:33:58.334Z,67.49
2022-09-12T08:36:28.221Z,67.49
2022-09-12T08:39:06.043Z,66.92
2022-09-12T08:41:35.181Z,66.48
2022-09-12T08:44:43.776Z,66.47
2022-09-12T08:47:27.701Z,66.14
2022-09-12T08:50:10.008Z,65.78
2022-09-12T08:53:03.388Z,65.92
2022-09-12T08:55:35.847Z,65.78
2022-09-12T08:58:24.495Z,65.47
2022-09-12T09:01:07.344Z,65.82
2022-09-12T09:03:52.806Z,65.53
2022-09-12T09:07:05.453Z,65.56
2022-09-12T09:09:50.864Z,65.52
2022-09-12T09:12:43.086Z,64.47
2022-09-12T09:15:43.875Z,64.45
2022-09-12T09:18:30.480Z,64.46
2022-09-12T09:21:09.574Z,64.22
2022-09-12T09:23:47.148Z,63.94
2022-09-12T09:26:26.767Z,63.73
2022-09-12T09:29:06.940Z,63.10
2022-09-12T09:31:40.268Z,63.38
2022-09-12T09:34:20.139Z,63.46
2022-09-12T09:37:20.971Z,63.10
2022-09-12T09:40:24.475Z,62.64
2022-09-12T09:43:02.980Z,62.91
2022-09-12T09:45:30.187Z,63.20
2022-09-12T09:48:08.147Z,62.29
2022-09-12T09:50:35.198Z,62.00
2022-09-12T09:53:03.885Z,62.28
2022-09-12T09:55:39.323Z,61.86
2022-09-12T09:58:06.550Z,61.91
2022-09-12T10:00:38.199Z,62.15
2022-09-12T10:03:05.101Z,61.48
2022-09-12T10:05:37.198Z,61.56
2022-09-12T10:08:07.519Z,60.57
2022-09-12T10:10:34.667Z,60.85
2022-09-12T10:13:24.922Z,60.36
2022-09-12T10:16:17.305Z,59.87
2022-09-12T10:18:44.885Z,60.08
2022-09-12T10:21:16.860Z,59.81
2022-09-12T10:23:45.224Z,59.82
2022-09-12T10:26:19.562Z,60.15
2022-09-12T10:28:56.292Z,60.28
2022-09-12T10:31:33.170Z,59.25
2022-09-12T10:34:02.466Z,59.18
2022-09-12T10:36:38.777Z,59.15
2022-09-12T10:39:06.871Z,58.97
2022-09-12T10:41:40.991Z,59.05
2022-09-12T10:44:19.291Z,59.46
2022-09-12T10:46:46.821Z,59.19
2022-09-12T10:49:24.329Z,59.15
2022-09-12T10:51:54.384Z,58.63
2022-09-12T10:54:27.939Z,58.06
2022-09-12T10:57:18.327Z,57.97
2022-09-12T10:59:45.303Z,57.18
2022-09-12T11:02:39.355Z,55.80
2022-09-12T11:05:22.818Z,56.46
2022-09-12T11:08:01.277Z,56.24
2022-09-12T11:11:11.667Z,56.27
2022-09-12T11:14:19.237Z,54.60
2022-09-12T11:17:24.974Z,54.31
2022-09-12T11:20:34.084Z,54.36
2022-09-12T11:23:07.283Z,55.17
2022-09-12T11:25:43.641Z,55.32
2022-09-12T11:28:38.541Z,54.08
2022-09-12T11:31:44.619Z,52.08
2022-09-12T11:34:55.262Z,52.11
2022-09-12T11:37:53.047Z,52.05
2022-09-12T11:40:35.084Z,51.90
2022-09-12T11:43:30.937Z,51.26
2022-09-12T11:46:09.642Z,51.17
2022-09-12T11:48:59.515Z,51.16
2022-09-12T11:51:40.407Z,50.59
2022-09-12T11:54:55.736Z,51.40
2022-09-12T11:57:41.617Z,52.16
2022-09-12T12:00:23.455Z,50.84
2022-09-12T12:02:59.229Z,51.28
2022-09-12T12:05:45.179Z,50.99
2022-09-12T12:08:12.468Z,50.81
2022-09-12T12:10:50.540Z,50.69
2022-09-12T12:13:27.818Z,50.22
2022-09-12T12:16:07.279Z,49.54
2022-09-12T12:18:38.931Z,49.74
2022-09-12T12:21:38.433Z,49.39
2022-09-12T12:24:08.785Z,49.12
2022-09-12T12:29:45.883Z,48.39
2022-09-12T12:32:22.135Z,48.06
2022-09-12T12:34:49.163Z,48.18
2022-09-12T12:37:18.887Z,47.06
2022-09-12T12:39:50.109Z,45.89
2022-09-12T12:42:37.506Z,44.55
2022-09-12T12:45:26.996Z,42.81
2022-09-12T12:48:08.332Z,43.80
2022-09-12T12:50:35.719Z,44.27
2022-09-12T12:53:17.418Z,44.46
2022-09-12T12:55:44.269Z,44.04
2022-09-12T12:58:32.515Z,43.62
2022-09-12T13:01:14.762Z,42.85
2022-09-12T13:03:55.390Z,42.11
2022-09-12T13:06:36.684Z,42.43
2022-09-12T13:09:19.271Z,42.45
2022-09-12T13:11:47.129Z,42.71
2022-09-12T13:14:38.727Z,42.17
2022-09-12T13:17:08.440Z,42.28
2022-09-12T13:19:38.255Z,41.31
2022-09-12T13:22:10.454Z,40.84
2022-09-12T13:24:54.593Z,40.50
2022-09-12T13:27:25.510Z,40.33
2022-09-12T13:30:18.651Z,40.32
2022-09-12T13:32:45.714Z,40.56
2022-09-12T13:35:28.339Z,40.36
2022-09-12T13:38:18.947Z,40.70
2022-09-12T13:41:10.202Z,41.19
2022-09-12T13:43:44.507Z,39.66
2022-09-12T13:46:17.948Z,39.15
2022-09-12T13:48:45.587Z,38.94
2022-09-12T13:51:26.813Z,39.16
2022-09-12T13:53:58.606Z,38.85
2022-09-12T13:56:26.781Z,38.38
2022-09-12T13:59:00.874Z,38.45
2022-09-12T14:01:48.766Z,37.34
2022-09-12T14:04:44.052Z,36.83
2022-09-12T14:07:24.321Z,37.10
2022-09-12T14:09:59.967Z,37.76
2022-09-12T14:12:31.294Z,37.44
2022-09-12T14:14:58.679Z,37.98
2022-09-12T14:17:39.643Z,37.82
2022-09-12T14:20:18.824Z,37.87
2022-09-12T14:22:50.908Z,37.12
2022-09-12T14:25:22.343Z,37.83
2022-09-12T14:27:54.301Z,37.75
2022-09-12T14:30:32.089Z,37.57
2022-09-12T14:33:11.060Z,37.12
2022-09-12T14:35:51.124Z,36.81
2022-09-12T14:38:17.976Z,37.54
2022-09-12T14:40:49.017Z,38.42
2022-09-12T14:43:26.277Z,37.38
2022-09-12T14:45:59.544Z,37.09
2022-09-12T14:48:31.856Z,36.97
2022-09-12T14:50:59.253Z,36.38
2022-09-12T14:53:32.941Z,36.95
2022-09-12T14:56:12.857Z,36.83
2022-09-12T14:58:41.305Z,37.02
2022-09-12T15:01:08.347Z,36.96
2022-09-12T15:03:53.297Z,36.77
2022-09-12T15:06:34.153Z,37.20
2022-09-12T15:09:12.302Z,36.93
2022-09-12T15:11:39.711Z,37.34
2022-09-12T15:14:13.277Z,37.99
2022-09-12T15:16:40.476Z,38.38
2022-09-12T15:19:07.454Z,37.59
2022-09-12T15:21:34.393Z,37.74
2022-09-12T15:24:01.370Z,37.49
2022-09-12T15:26:31.592Z,37.55
2022-09-12T15:28:58.575Z,38.16
2022-09-12T15:31:29.162Z,37.27
2022-09-12T15:33:59.164Z,37.11
2022-09-12T15:36:27.075Z,37.33
2022-09-12T15:38:55.384Z,38.25
2022-09-12T15:41:37.442Z,38.38
2022-09-12T15:44:06.403Z,38.64
2022-09-12T15:46:33.354Z,38.67
2022-09-12T15:49:00.411Z,39.13
2022-09-12T15:51:27.794Z,38.94
2022-09-12T15:53:54.830Z,38.83
2022-09-12T15:56:22.788Z,38.58
2022-09-12T15:58:58.812Z,38.60
2022-09-12T16:01:28.116Z,38.62
2022-09-12T16:03:55.534Z,39.26
2022-09-12T16:06:22.690Z,39.33
2022-09-12T16:08:49.735Z,39.12
2022-09-12T16:11:25.467Z,39.33
2022-09-12T16:13:53.846Z,39.43
2022-09-12T16:16:21.363Z,39.74
2022-09-12T16:18:48.547Z,40.50
2022-09-12T16:21:16.286Z,40.14
2022-09-12T16:23:45.109Z,40.71
2022-09-12T16:26:12.489Z,40.61
2022-09-12T16:28:40.013Z,40.44
2022-09-12T16:31:10.524Z,40.96
2022-09-12T16:33:39.742Z,41.53
2022-09-12T16:36:13.958Z,42.15
2022-09-12T16:38:51.177Z,42.16
2022-09-12T16:41:27.216Z,42.44
2022-09-12T16:43:54.984Z,43.23
2022-09-12T16:46:25.837Z,43.45
2022-09-12T16:48:57.064Z,43.89
2022-09-12T16:51:32.793Z,43.98
2022-09-12T16:53:59.853Z,44.36
2022-09-12T16:56:27.593Z,44.96
2022-09-12T16:58:55.102Z,45.32
2022-09-12T17:01:25.317Z,45.63
2022-09-12T17:03:58.324Z,45.93
2022-09-12T17:06:26.403Z,45.84
2022-09-12T17:08:56.312Z,45.67
2022-09-12T17:11:33.273Z,46.02
2022-09-12T17:14:06.117Z,45.71
2022-09-12T17:16:37.552Z,45.86
2022-09-12T17:19:06.637Z,45.63
2022-09-12T17:21:35.573Z,44.90
2022-09-12T17:24:03.591Z,45.16
2022-09-12T17:26:30.980Z,45.14
2022-09-12T17:28:58.243Z,45.25
2022-09-12T17:31:25.433Z,45.59
2022-09-12T17:33:58.473Z,45.75
2022-09-12T17:36:26.640Z,44.93
2022-09-12T17:38:54.399Z,45.32
2022-09-12T17:41:25.712Z,45.08
2022-09-12T17:43:57.335Z,45.54
2022-09-12T17:46:31.785Z,45.77
2022-09-12T17:49:01.608Z,45.88
2022-09-12T17:51:31.176Z,45.80
2022-09-12T17:54:09.629Z,45.75
2022-09-12T17:56:37.857Z,45.57
2022-09-12T17:59:06.971Z,46.56
2022-09-12T18:01:52.760Z,46.68
2022-09-12T18:04:20.245Z,46.85
2022-09-12T18:06:50.286Z,47.57
2022-09-12T18:09:22.365Z,47.65
2022-09-12T18:11:50.332Z,48.31
2022-09-12T18:14:19.199Z,48.19
2022-09-12T18:16:47.089Z,48.43
2022-09-12T18:19:15.052Z,48.82
2022-09-12T18:21:41.946Z,48.47
2022-09-12T18:24:10.453Z,48.15
2022-09-12T18:26:37.820Z,48.91
2022-09-12T18:29:04.945Z,48.85
2022-09-12T18:31:32.336Z,49.23
2022-09-12T18:34:01.156Z,49.10
2022-09-12T18:36:30.034Z,48.61
2022-09-12T18:38:59.340Z,49.23
2022-09-12T18:41:28.960Z,49.48
2022-09-12T18:44:02.028Z,49.29
2022-09-12T18:46:31.259Z,49.36
2022-09-12T18:48:59.858Z,49.92
2022-09-12T18:51:31.587Z,49.81
2022-09-12T18:54:06.455Z,49.33
2022-09-12T18:56:37.583Z,49.46
2022-09-12T18:59:07.006Z,49.55
2022-09-12T19:01:37.347Z,49.96
2022-09-12T19:04:06.374Z,49.86
2022-09-12T19:06:38.053Z,50.42
2022-09-12T19:09:09.284Z,50.82
2022-09-12T19:11:39.359Z,50.49
2022-09-12T19:14:07.674Z,51.07
2022-09-12T19:16:35.139Z,50.54
2022-09-12T19:19:03.023Z,51.05
2022-09-12T19:21:32.271Z,50.93
2022-09-12T19:24:03.531Z,50.98
2022-09-12T19:26:30.934Z,50.87
2022-09-12T19:28:57.937Z,51.44
2022-09-12T19:31:26.125Z,51.07
2022-09-12T19:33:53.134Z,51.14
2022-09-12T19:39:09.518Z,51.22
2022-09-12T19:41:37.251Z,52.02
2022-09-12T19:44:04.857Z,51.71
2022-09-12T19:46:32.022Z,52.07
2022-09-12T19:48:59.028Z,52.17
2022-09-12T19:51:26.426Z,52.17
2022-09-12T19:53:54.016Z,52.79
2022-09-12T19:56:21.878Z,52.37
2022-09-12T19:58:55.742Z,52.74
2022-09-12T20:01:30.352Z,52.97
2022-09-12T20:03:58.920Z,52.99
2022-09-12T20:06:27.555Z,53.26
2022-09-12T20:08:56.208Z,53.08
2022-09-12T20:11:25.595Z,53.88
2022-09-12T20:13:53.764Z,53.78
2022-09-12T20:16:25.362Z,53.98
2022-09-12T20:18:56.509Z,53.88
2022-09-12T20:21:31.255Z,54.08
2022-09-12T20:24:02.938Z,53.59
2022-09-12T20:26:30.774Z,54.07
2022-09-12T20:28:57.842Z,54.33
2022-09-12T20:31:24.847Z,54.28
2022-09-12T20:33:52.296Z,54.73
2022-09-12T20:36:21.484Z,55.01
2022-09-12T20:38:57.019Z,54.32
2022-09-12T20:41:25.248Z,54.80
2022-09-12T20:43:54.137Z,54.89
2022-09-12T20:46:22.708Z,55.33
2022-09-12T20:48:51.542Z,55.65
2022-09-12T20:51:20.204Z,55.39
2022-09-12T20:53:52.757Z,55.47
2022-09-12T20:56:21.079Z,56.04
2022-09-12T20:58:48.292Z,55.83
2022-09-12T21:01:16.649Z,56.33
2022-09-12T21:03:45.656Z,56.08
2022-09-12T21:06:17.067Z,56.32
2022-09-12T21:08:46.352Z,57.18
2022-09-12T21:11:15.246Z,56.75
2022-09-12T21:13:42.559Z,56.69
2022-09-12T21:16:16.168Z,57.16
2022-09-12T21:18:44.166Z,57.66
2022-09-12T21:21:13.705Z,57.78
2022-09-12T21:23:41.533Z,58.08
2022-09-12T21:26:08.942Z,58.48
2022-09-12T21:28:36.107Z,58.97
2022-09-12T21:31:03.874Z,58.89
2022-09-12T21:33:31.434Z,59.09
2022-09-12T21:36:03.599Z,59.64
2022-09-12T21:38:31.571Z,59.33
2022-09-12T21:41:14.522Z,59.07
2022-09-12T21:43:42.176Z,59.53
2022-09-12T21:46:10.275Z,59.40
2022-09-12T21:48:37.951Z,59.28
2022-09-12T21:51:05.312Z,59.51
2022-09-12T21:53:32.465Z,59.58
2022-09-12T21:56:08.238Z,59.74
2022-09-12T21:58:36.554Z,59.53
2022-09-12T22:01:05.865Z,59.39
2022-09-12T22:03:33.080Z,59.63
2022-09-12T22:06:03.538Z,59.70
2022-09-12T22:08:33.741Z,60.48
2022-09-12T22:11:04.641Z,60.28
2022-09-12T22:13:32.366Z,60.59
2022-09-12T22:16:02.835Z,60.45
2022-09-12T22:18:32.780Z,60.56
2022-09-12T22:21:12.853Z,61.04
2022-09-12T22:23:58.239Z,61.56
2022-09-12T22:26:27.052Z,61.40
2022-09-12T22:28:54.549Z,61.62
2022-09-12T22:31:28.869Z,61.72
2022-09-12T22:33:57.236Z,61.88
2022-09-12T22:36:28.129Z,62.04
2022-09-12T22:38:58.933Z,62.23
2022-09-12T22:41:26.239Z,62.21
2022-09-12T22:43:53.130Z,62.19
2022-09-12T22:46:20.312Z,62.18
2022-09-12T22:48:47.874Z,61.86
2022-09-12T22:51:18.930Z,62.00
2022-09-12T22:53:46.089Z,62.04
2022-09-12T22:56:13.082Z,61.91
2022-09-12T22:58:41.912Z,61.95
2022-09-12T23:01:10.010Z,61.89
2022-09-12T23:03:37.492Z,62.25
2022-09-12T23:06:05.620Z,62.19
2022-09-12T23:08:35.212Z,62.19
2022-09-12T23:11:13.108Z,62.61
2022-09-12T23:13:43.774Z,62.45
2022-09-12T23:16:17.534Z,61.97
2022-09-12T23:18:44.474Z,61.99
2022-09-12T23:21:14.155Z,61.90
2022-09-12T23:23:41.340Z,61.92
2022-09-12T23:26:17.349Z,62.46
2022-09-12T23:28:59.505Z,62.16
2022-09-12T23:31:31.208Z,62.02
2022-09-12T23:34:02.199Z,61.96
2022-09-12T23:36:30.335Z,62.13
2022-09-12T23:38:58.436Z,62.19
2022-09-12T23:41:25.813Z,61.75
2022-09-12T23:43:52.799Z,62.28
2022-09-12T23:46:21.310Z,62.28
2022-09-12T23:48:49.393Z,62.67
2022-09-12T23:51:16.572Z,62.41
2022-09-12T23:53:43.672Z,62.93
2022-09-12T23:56:11.043Z,62.87
2022-09-12T23:58:38.042Z,62.84
